Time;durP1;ratioP1;P1;durP2;ratioP2;P2;SDS_P1;SDS_P2;PMS_P1;PMS_P2;Temp;Humidity;BMP_temperature;BMP_pressure;BME280_temperature;BME280_humidity;BME280_pressure;Samples;Min_cycle;Max_cycle;Signal;HPM_P1;HPM_P2
2020/12/11 00:01:39;;;;;;;19.08;12.93;;;3.20;99.90;;;;;;4994618;28;20307;-91
2020/12/11 00:04:06;;;;;;;18.77;13.05;;;3.20;99.90;;;;;;4995259;28;20294;-91
2020/12/11 00:06:32;;;;;;;19.83;13.32;;;3.20;99.90;;;;;;4997617;28;20302;-91
2020/12/11 00:09:00;;;;;;;19.10;11.48;;;3.20;99.90;;;;;;5014315;28;20259;-90
2020/12/11 00:11:28;;;;;;;19.33;11.80;;;3.20;99.90;;;;;;5016845;28;20224;-90
2020/12/11 00:13:55;;;;;;;20.10;12.07;;;3.20;99.90;;;;;;5018528;28;20194;-91
2020/12/11 00:16:21;;;;;;;24.40;14.93;;;3.20;99.90;;;;;;5018658;28;20280;-91
2020/12/11 00:18:47;;;;;;;22.92;13.18;;;3.20;99.90;;;;;;5015433;28;20291;-92
2020/12/11 00:21:14;;;;;;;20.90;12.77;;;3.20;99.90;;;;;;5014842;28;20673;-91
2020/12/11 00:23:40;;;;;;;18.42;11.48;;;3.20;99.90;;;;;;5015934;28;20278;-92
2020/12/11 00:26:08;;;;;;;20.77;13.43;;;3.20;99.90;;;;;;5014701;28;20214;-92
2020/12/11 00:28:34;;;;;;;21.23;12.60;;;3.20;99.90;;;;;;5013418;28;20272;-91
2020/12/11 00:31:00;;;;;;;22.33;13.05;;;3.10;99.90;;;;;;5013984;28;20206;-91
2020/12/11 00:33:27;;;;;;;22.02;12.52;;;3.20;99.90;;;;;;5013936;28;20203;-92
2020/12/11 00:35:54;;;;;;;20.83;13.82;;;3.10;99.90;;;;;;5015257;28;20191;-91
2020/12/11 00:38:21;;;;;;;21.20;13.90;;;3.20;99.90;;;;;;5014791;28;20297;-92
2020/12/11 00:40:50;;;;;;;23.48;13.32;;;3.20;99.90;;;;;;5015537;28;20298;-90
2020/12/11 00:43:17;;;;;;;19.30;11.18;;;3.10;99.90;;;;;;5016362;28;20257;-92
2020/12/11 00:45:43;;;;;;;18.10;12.30;;;3.20;99.90;;;;;;5017189;28;20282;-92
2020/12/11 00:48:10;;;;;;;22.95;12.85;;;3.10;99.90;;;;;;5017577;28;20320;-92
2020/12/11 00:50:36;;;;;;;22.77;13.50;;;3.10;99.90;;;;;;5017410;28;20286;-91
2020/12/11 00:53:03;;;;;;;17.27;11.73;;;3.10;99.90;;;;;;5013890;28;20258;-91
2020/12/11 00:55:29;;;;;;;16.77;11.32;;;3.10;99.90;;;;;;5013800;28;20212;-90
2020/12/11 00:57:55;;;;;;;20.23;10.55;;;3.20;99.90;;;;;;4981889;28;20246;-90
2020/12/11 01:00:23;;;;;;;24.40;13.35;;;3.10;99.90;;;;;;5015179;28;20292;-91
2020/12/11 01:02:49;;;;;;;22.77;12.00;;;3.10;99.90;;;;;;5014499;28;20206;-91
2020/12/11 01:05:15;;;;;;;21.35;12.13;;;3.20;99.90;;;;;;5008488;28;20204;-90
2020/12/11 01:07:42;;;;;;;19.92;13.18;;;3.10;99.90;;;;;;5013689;28;20231;-91
2020/12/11 01:10:08;;;;;;;19.48;13.10;;;3.20;99.90;;;;;;5015786;28;20274;-90
2020/12/11 01:12:35;;;;;;;20.85;12.82;;;3.20;99.90;;;;;;5015148;28;20214;-91
2020/12/11 01:15:01;;;;;;;17.13;13.65;;;3.20;99.90;;;;;;5014598;28;20192;-90
2020/12/11 01:17:28;;;;;;;19.73;12.52;;;3.20;99.90;;;;;;5015784;28;20286;-90
2020/12/11 01:19:55;;;;;;;20.30;12.73;;;3.20;99.90;;;;;;5015874;28;20192;-90
2020/12/11 01:22:21;;;;;;;16.15;10.38;;;3.10;99.90;;;;;;5012942;28;20214;-88
2020/12/11 01:24:47;;;;;;;20.02;12.70;;;3.20;99.90;;;;;;5012995;28;20207;-89
2020/12/11 01:27:14;;;;;;;20.02;12.35;;;3.10;99.90;;;;;;5013005;28;20212;-90
2020/12/11 01:29:41;;;;;;;16.02;10.52;;;3.10;99.90;;;;;;5012688;28;20242;-89
2020/12/11 01:32:08;;;;;;;22.88;13.20;;;3.10;99.90;;;;;;5011578;28;20639;-90
2020/12/11 01:34:35;;;;;;;16.40;11.40;;;3.10;99.90;;;;;;5012838;28;20637;-89
2020/12/11 01:37:05;;;;;;;22.77;12.93;;;3.10;99.90;;;;;;5009364;28;20445;-90
2020/12/11 01:39:32;;;;;;;21.73;12.50;;;3.00;99.90;;;;;;5008268;28;20294;-90
2020/12/11 01:41:59;;;;;;;14.05;10.00;;;3.00;99.90;;;;;;5013243;28;20294;-90
2020/12/11 01:44:25;;;;;;;22.25;12.60;;;3.00;99.90;;;;;;5014382;28;20203;-89
2020/12/11 01:46:51;;;;;;;17.40;12.57;;;3.00;99.90;;;;;;5013679;28;20239;-88
2020/12/11 01:49:18;;;;;;;17.08;11.20;;;3.10;99.90;;;;;;5016602;28;20237;-89
2020/12/11 01:51:48;;;;;;;19.13;10.05;;;3.00;99.90;;;;;;5015838;28;20210;-90
2020/12/11 01:54:14;;;;;;;18.08;13.45;;;2.90;99.90;;;;;;5013235;28;20298;-89
2020/12/11 01:56:45;;;;;;;18.92;12.85;;;2.90;99.90;;;;;;5015022;28;20275;-89
2020/12/11 01:59:15;;;;;;;17.80;12.50;;;2.90;99.90;;;;;;5016591;28;20338;-89
2020/12/11 02:01:47;;;;;;;21.10;13.07;;;2.90;99.90;;;;;;5015158;28;20294;-89
2020/12/11 02:04:13;;;;;;;20.08;11.52;;;2.90;99.90;;;;;;5028014;28;20275;-89
2020/12/11 02:06:41;;;;;;;16.95;10.00;;;2.90;99.90;;;;;;5035838;28;20222;-88
2020/12/11 02:09:09;;;;;;;18.98;11.18;;;2.90;99.90;;;;;;5035725;28;20239;-89
2020/12/11 02:11:36;;;;;;;15.73;12.48;;;2.90;99.90;;;;;;5036104;28;20188;-87
2020/12/11 02:14:02;;;;;;;17.30;11.05;;;2.90;99.90;;;;;;5037928;28;20188;-87
2020/12/11 02:16:29;;;;;;;18.15;11.93;;;2.90;99.90;;;;;;5038054;28;20199;-89
2020/12/11 02:18:55;;;;;;;17.50;9.52;;;2.90;99.90;;;;;;5031129;28;20231;-90
2020/12/11 02:21:22;;;;;;;20.40;11.57;;;2.90;99.90;;;;;;5025628;28;20204;-90
2020/12/11 02:23:49;;;;;;;18.65;12.45;;;2.90;99.90;;;;;;5025019;28;20231;-88
2020/12/11 02:26:15;;;;;;;24.80;12.38;;;2.90;99.90;;;;;;5018240;28;20230;-88
2020/12/11 02:28:42;;;;;;;19.55;11.10;;;2.90;99.90;;;;;;5015852;28;20232;-88
2020/12/11 02:31:08;;;;;;;19.30;10.50;;;2.90;99.90;;;;;;5016103;28;20203;-87
2020/12/11 02:33:35;;;;;;;19.55;11.25;;;2.90;99.90;;;;;;5013927;28;20271;-88
2020/12/11 02:36:01;;;;;;;20.48;11.55;;;2.90;99.90;;;;;;5020329;28;20289;-89
2020/12/11 02:38:27;;;;;;;16.92;12.20;;;2.80;99.90;;;;;;5016583;28;20306;-89
2020/12/11 02:40:56;;;;;;;20.88;12.68;;;2.80;99.90;;;;;;5020117;28;20302;-87
2020/12/11 02:43:24;;;;;;;20.95;11.15;;;2.80;99.90;;;;;;5019961;28;20239;-87
2020/12/11 02:45:52;;;;;;;18.63;12.35;;;2.70;99.90;;;;;;5012628;28;20207;-90
2020/12/11 02:48:19;;;;;;;18.90;11.40;;;2.60;99.90;;;;;;5013973;28;20238;-86
2020/12/11 02:50:46;;;;;;;17.13;10.43;;;2.50;99.90;;;;;;5015537;28;20294;-89
2020/12/11 02:53:12;;;;;;;16.88;10.57;;;2.50;99.90;;;;;;4980434;28;20211;-89
2020/12/11 02:55:39;;;;;;;17.58;12.45;;;2.40;99.90;;;;;;5015286;28;20710;-89
2020/12/11 02:58:07;;;;;;;19.17;12.13;;;2.30;99.90;;;;;;5015201;28;20239;-87
2020/12/11 03:00:36;;;;;;;17.33;11.50;;;2.30;99.90;;;;;;5015176;28;20298;-88
2020/12/11 03:03:02;;;;;;;19.65;12.38;;;2.20;99.90;;;;;;4975285;28;20212;-88
2020/12/11 03:05:28;;;;;;;21.38;11.85;;;2.10;99.90;;;;;;4963715;28;20204;-89
2020/12/11 03:07:55;;;;;;;18.85;11.07;;;2.00;99.90;;;;;;5014724;28;20207;-89
2020/12/11 03:10:21;;;;;;;19.67;11.77;;;2.00;99.90;;;;;;5014967;28;20638;-87
2020/12/11 03:12:48;;;;;;;21.52;13.57;;;2.00;99.90;;;;;;5014892;28;20714;-89
2020/12/11 03:15:15;;;;;;;19.30;13.38;;;2.00;99.90;;;;;;5014987;28;20246;-89
2020/12/11 03:17:41;;;;;;;23.02;13.15;;;2.00;99.90;;;;;;5013582;28;20199;-88
2020/12/11 03:20:08;;;;;;;19.92;12.50;;;1.90;99.90;;;;;;5014731;28;20582;-89
2020/12/11 03:22:35;;;;;;;20.27;11.70;;;1.90;99.90;;;;;;5014503;28;20239;-89
2020/12/11 03:25:01;;;;;;;28.23;13.57;;;1.90;99.90;;;;;;5009919;28;20668;-89
2020/12/11 03:27:28;;;;;;;20.02;11.90;;;1.90;99.90;;;;;;5014288;28;20649;-89
2020/12/11 03:29:55;;;;;;;19.85;11.93;;;1.90;99.90;;;;;;5014586;28;20330;-90
2020/12/11 03:32:22;;;;;;;17.58;12.05;;;1.90;99.90;;;;;;5013076;28;20208;-91
2020/12/11 03:34:48;;;;;;;21.70;13.82;;;1.90;99.90;;;;;;5013345;28;20207;-89
2020/12/11 03:37:16;;;;;;;20.25;11.55;;;1.90;99.90;;;;;;5014271;28;20302;-90
2020/12/11 03:39:43;;;;;;;23.17;14.40;;;1.80;99.90;;;;;;5014112;28;20695;-89
2020/12/11 03:42:09;;;;;;;19.25;13.20;;;1.80;99.90;;;;;;5014074;28;20204;-91
2020/12/11 03:44:36;;;;;;;16.92;10.45;;;1.80;99.90;;;;;;5014103;28;20208;-89
2020/12/11 03:47:02;;;;;;;21.75;13.52;;;1.80;99.90;;;;;;5013152;28;20214;-90
2020/12/11 03:49:29;;;;;;;18.83;11.55;;;1.70;99.90;;;;;;5013930;28;20263;-89
2020/12/11 03:51:56;;;;;;;16.60;11.45;;;1.70;99.90;;;;;;5014091;28;20203;-87
2020/12/11 03:54:22;;;;;;;21.52;13.77;;;1.60;99.90;;;;;;5013801;28;20211;-89
2020/12/11 03:56:48;;;;;;;19.52;13.15;;;1.50;99.90;;;;;;5014098;28;20215;-89
2020/12/11 03:59:15;;;;;;;23.40;14.25;;;1.50;99.90;;;;;;5014142;28;20330;-89
2020/12/11 04:01:41;;;;;;;26.23;12.77;;;1.50;99.90;;;;;;5012695;28;20216;-89
2020/12/11 04:04:08;;;;;;;17.58;11.82;;;1.50;99.90;;;;;;5013604;28;20302;-89
2020/12/11 04:06:35;;;;;;;22.77;13.50;;;1.40;99.90;;;;;;5013831;28;20302;-90
2020/12/11 04:09:02;;;;;;;20.08;13.07;;;1.40;99.90;;;;;;5013655;28;20242;-89
2020/12/11 04:11:28;;;;;;;21.40;12.80;;;1.30;99.90;;;;;;5013886;28;20630;-90
2020/12/11 04:13:55;;;;;;;15.98;11.10;;;1.30;99.90;;;;;;5013963;28;20225;-90
2020/12/11 04:16:21;;;;;;;24.15;13.02;;;1.30;99.90;;;;;;5013779;28;20212;-90
2020/12/11 04:18:47;;;;;;;20.02;12.35;;;1.30;99.90;;;;;;5012802;28;20204;-90
2020/12/11 04:21:15;;;;;;;25.75;13.60;;;1.30;99.90;;;;;;5013841;28;20218;-89
2020/12/11 04:23:43;;;;;;;22.05;13.40;;;1.30;99.90;;;;;;5013531;28;20206;-89
2020/12/11 04:26:10;;;;;;;21.30;12.55;;;1.30;99.90;;;;;;5013605;28;20662;-88
2020/12/11 04:28:38;;;;;;;17.70;11.60;;;1.30;99.90;;;;;;5013526;28;20326;-90
2020/12/11 04:31:05;;;;;;;24.98;13.90;;;1.30;99.90;;;;;;5013310;28;20239;-86
2020/12/11 04:33:31;;;;;;;27.13;12.65;;;1.30;99.90;;;;;;5012244;28;20209;-91
2020/12/11 04:35:57;;;;;;;24.63;15.00;;;1.30;99.90;;;;;;5013314;28;20302;-89
2020/12/11 04:38:24;;;;;;;23.17;13.93;;;1.30;99.90;;;;;;5013279;28;20211;-89
2020/12/11 04:40:59;;;;;;;22.65;12.30;;;1.40;99.90;;;;;;5012712;28;20271;-89
2020/12/11 04:43:26;;;;;;;23.77;11.85;;;1.40;99.90;;;;;;5013264;28;20667;-89
2020/12/11 04:45:54;;;;;;;25.70;13.80;;;1.30;99.90;;;;;;5013233;28;20235;-89
2020/12/11 04:48:21;;;;;;;21.27;12.57;;;1.40;99.90;;;;;;5012103;28;20754;-90
2020/12/11 04:50:48;;;;;;;28.38;15.20;;;1.40;99.90;;;;;;5013210;28;20267;-89
2020/12/11 04:53:16;;;;;;;26.25;12.68;;;1.40;99.90;;;;;;5012946;28;20309;-90
2020/12/11 04:55:43;;;;;;;19.27;11.27;;;1.40;99.90;;;;;;5008446;28;20211;-90
2020/12/11 04:58:15;;;;;;;23.30;12.88;;;1.30;99.90;;;;;;5013579;28;20373;-89
2020/12/11 05:00:42;;;;;;;20.02;13.15;;;1.30;99.90;;;;;;5013470;28;20204;-91
2020/12/11 05:03:10;;;;;;;24.63;13.20;;;1.30;99.90;;;;;;5010995;28;20214;-91
2020/12/11 05:05:36;;;;;;;21.08;12.57;;;1.30;99.90;;;;;;5013123;28;20211;-89
2020/12/11 05:08:16;;;;;;;25.95;12.15;;;1.20;99.90;;;;;;5013013;28;20597;-91
2020/12/11 05:10:43;;;;;;;21.88;12.32;;;1.10;99.90;;;;;;5012857;28;20306;-89
2020/12/11 05:13:18;;;;;;;24.60;13.40;;;1.10;99.90;;;;;;5012965;28;20659;-89
2020/12/11 05:15:44;;;;;;;19.73;11.52;;;1.00;99.90;;;;;;5012627;28;20263;-89
2020/12/11 05:18:18;;;;;;;25.13;13.23;;;1.00;99.90;;;;;;5012434;28;20204;-89
2020/12/11 05:20:45;;;;;;;20.42;13.43;;;0.90;99.90;;;;;;5013602;28;20261;-90
2020/12/11 05:23:11;;;;;;;21.25;11.93;;;0.90;99.90;;;;;;5012825;28;20239;-89
2020/12/11 05:25:38;;;;;;;24.92;13.23;;;0.80;99.90;;;;;;5012920;28;20246;-88
2020/12/11 05:28:04;;;;;;;23.17;12.52;;;0.80;99.90;;;;;;5013160;28;20204;-89
2020/12/11 05:30:32;;;;;;;23.02;13.02;;;0.80;99.90;;;;;;5013820;28;20204;-89
2020/12/11 05:32:59;;;;;;;25.80;13.65;;;0.80;99.90;;;;;;5011578;28;20210;-90
2020/12/11 05:35:28;;;;;;;30.60;15.38;;;0.70;99.90;;;;;;5012985;28;20229;-89
2020/12/11 05:37:57;;;;;;;28.65;14.68;;;0.70;99.90;;;;;;5012653;28;20659;-89
2020/12/11 05:40:27;;;;;;;29.33;14.93;;;0.70;99.90;;;;;;5012870;28;20401;-89
2020/12/11 05:43:11;;;;;;;21.70;12.30;;;0.60;99.90;;;;;;5012914;28;20211;-89
2020/12/11 05:45:45;;;;;;;24.13;13.57;;;0.60;99.90;;;;;;5012818;28;20258;-87
2020/12/11 05:48:11;;;;;;;32.00;17.42;;;0.60;99.90;;;;;;5011601;28;20294;-89
2020/12/11 05:50:37;;;;;;;24.67;12.45;;;0.60;99.90;;;;;;5012739;28;20294;-87
2020/12/11 05:53:04;;;;;;;29.35;15.48;;;0.60;99.90;;;;;;5016201;28;20203;-89
2020/12/11 05:55:30;;;;;;;44.78;16.02;;;0.60;99.90;;;;;;5016397;28;20226;-89
2020/12/11 05:57:58;;;;;;;22.55;11.23;;;0.60;99.90;;;;;;5016059;28;20322;-89
2020/12/11 06:00:25;;;;;;;25.23;16.50;;;0.60;99.90;;;;;;5016347;28;20289;-89
2020/12/11 06:02:54;;;;;;;24.70;14.35;;;0.60;99.90;;;;;;5014739;28;20628;-87
2020/12/11 06:05:22;;;;;;;25.50;12.93;;;0.50;99.90;;;;;;5016504;28;20641;-89
2020/12/11 06:07:50;;;;;;;23.42;11.70;;;0.50;99.90;;;;;;5015804;28;20234;-89
2020/12/11 06:10:18;;;;;;;28.45;14.23;;;0.50;99.90;;;;;;5016357;28;20968;-90
2020/12/11 06:12:44;;;;;;;35.55;16.98;;;0.40;99.90;;;;;;5016161;28;20214;-90
2020/12/11 06:15:28;;;;;;;30.42;14.25;;;0.40;99.90;;;;;;5016786;28;20213;-90
2020/12/11 06:17:59;;;;;;;30.95;14.10;;;0.40;99.90;;;;;;5014807;28;20570;-90
2020/12/11 06:20:27;;;;;;;28.75;15.75;;;0.40;99.90;;;;;;5016406;28;20314;-92
2020/12/11 06:22:53;;;;;;;23.95;14.40;;;0.40;99.90;;;;;;5015787;28;20314;-87
2020/12/11 06:25:30;;;;;;;30.20;15.02;;;0.50;99.90;;;;;;5011983;28;20294;-88
2020/12/11 06:27:58;;;;;;;20.35;13.65;;;0.50;99.90;;;;;;5010508;28;20630;-90
2020/12/11 06:30:27;;;;;;;35.03;15.70;;;0.60;99.90;;;;;;5015669;28;20231;-89
2020/12/11 06:32:55;;;;;;;27.42;15.48;;;0.60;99.90;;;;;;5014533;28;20583;-89
2020/12/11 06:35:22;;;;;;;24.30;13.20;;;0.70;99.90;;;;;;5014766;28;20230;-90
2020/12/11 06:37:48;;;;;;;30.45;15.63;;;0.70;99.90;;;;;;5015444;28;20229;-90
2020/12/11 06:40:14;;;;;;;32.22;15.55;;;0.70;99.90;;;;;;5016276;28;20297;-90
2020/12/11 06:42:47;;;;;;;36.67;16.52;;;0.70;99.90;;;;;;5015717;28;20287;-92
2020/12/11 06:45:23;;;;;;;27.50;14.23;;;0.70;99.90;;;;;;5008884;28;20215;-90
2020/12/11 06:47:55;;;;;;;26.15;13.98;;;0.70;99.90;;;;;;5015905;28;20210;-91
2020/12/11 06:50:25;;;;;;;27.83;14.60;;;0.70;99.90;;;;;;5013197;28;20228;-89
2020/12/11 06:52:52;;;;;;;31.70;15.32;;;0.70;99.90;;;;;;5015618;28;20642;-89
2020/12/11 06:55:19;;;;;;;27.20;15.05;;;0.70;99.90;;;;;;5015829;28;20290;-90
2020/12/11 06:57:48;;;;;;;31.05;16.05;;;0.70;99.90;;;;;;5015581;28;20206;-91
2020/12/11 07:00:50;;;;;;;26.38;16.05;;;0.70;99.90;;;;;;5027003;28;20218;-88
2020/12/11 07:03:31;;;;;;;29.35;13.02;;;0.70;99.90;;;;;;5036239;28;20210;-85
2020/12/11 07:05:59;;;;;;;28.60;14.93;;;0.80;99.90;;;;;;5032910;28;20249;-90
2020/12/11 07:08:26;;;;;;;33.13;15.23;;;0.80;99.90;;;;;;5023150;28;20207;-88
2020/12/11 07:10:53;;;;;;;25.77;13.70;;;0.90;99.90;;;;;;5021214;28;20290;-88
2020/12/11 07:13:19;;;;;;;31.20;15.48;;;0.90;99.90;;;;;;5015664;28;20209;-91
2020/12/11 07:15:45;;;;;;;30.38;15.93;;;1.00;99.90;;;;;;5015990;28;20238;-92
2020/12/11 07:18:17;;;;;;;24.20;12.65;;;1.00;99.90;;;;;;5009266;28;20282;-90
2020/12/11 07:20:51;;;;;;;27.42;14.80;;;1.00;99.90;;;;;;5015054;28;20286;-87
2020/12/11 07:23:18;;;;;;;25.50;14.52;;;1.10;99.90;;;;;;5014611;28;20207;-87
2020/12/11 07:25:46;;;;;;;25.80;14.75;;;1.10;99.90;;;;;;5014405;28;20294;-88
2020/12/11 07:28:13;;;;;;;29.10;16.42;;;1.10;99.90;;;;;;5014910;28;20208;-81
2020/12/11 07:30:41;;;;;;;28.13;12.73;;;1.20;99.90;;;;;;5009272;28;20207;-83
2020/12/11 07:33:09;;;;;;;20.63;11.70;;;1.10;99.90;;;;;;5013360;28;20210;-83
2020/12/11 07:35:37;;;;;;;27.70;15.55;;;1.20;99.90;;;;;;5013757;28;20262;-81
2020/12/11 07:38:05;;;;;;;23.85;13.25;;;1.20;99.90;;;;;;5018794;28;20203;-83
2020/12/11 07:40:31;;;;;;;29.33;14.38;;;1.30;99.90;;;;;;5030955;28;20234;-82
2020/12/11 07:42:59;;;;;;;27.10;14.85;;;1.20;99.90;;;;;;5027298;28;20203;-83
2020/12/11 07:45:28;;;;;;;23.25;12.73;;;1.20;99.90;;;;;;5029925;28;20222;-85
2020/12/11 07:47:55;;;;;;;29.75;15.63;;;1.20;99.90;;;;;;5013989;28;20235;-82
2020/12/11 07:50:23;;;;;;;24.63;13.35;;;1.20;99.90;;;;;;5016290;28;20234;-82
2020/12/11 07:52:52;;;;;;;32.03;13.68;;;1.30;99.90;;;;;;5013815;28;20295;-82
2020/12/11 07:55:19;;;;;;;31.50;14.98;;;1.30;99.90;;;;;;5014111;28;20208;-84
2020/12/11 07:57:54;;;;;;;31.90;15.48;;;1.20;99.90;;;;;;5008371;28;20710;-82
2020/12/11 08:00:21;;;;;;;26.73;15.18;;;1.30;99.90;;;;;;5013966;28;20294;-82
2020/12/11 08:03:04;;;;;;;25.50;15.75;;;1.20;99.90;;;;;;5012948;28;20232;-82
2020/12/11 08:05:31;;;;;;;24.27;13.82;;;1.30;99.90;;;;;;5012730;28;20266;-82
2020/12/11 08:07:58;;;;;;;32.05;14.40;;;1.30;99.90;;;;;;5013403;28;20759;-83
2020/12/11 08:10:38;;;;;;;22.17;12.77;;;1.30;99.90;;;;;;5013645;28;20231;-83
2020/12/11 08:13:10;;;;;;;23.38;12.68;;;1.20;99.90;;;;;;5013834;28;20306;-82
2020/12/11 08:15:36;;;;;;;27.85;14.25;;;1.20;99.90;;;;;;5012719;28;20203;-82
2020/12/11 08:18:11;;;;;;;23.63;13.25;;;1.20;99.90;;;;;;5012715;28;20204;-82
2020/12/11 08:20:51;;;;;;;26.00;13.82;;;1.20;99.90;;;;;;5006703;28;20262;-82
2020/12/11 08:23:19;;;;;;;25.65;15.45;;;1.30;99.90;;;;;;4993532;28;20295;-82
2020/12/11 08:25:46;;;;;;;24.40;13.35;;;1.30;99.90;;;;;;4993830;28;20669;-82
2020/12/11 08:28:13;;;;;;;36.58;17.65;;;1.30;99.90;;;;;;4994023;28;20575;-82
2020/12/11 08:30:40;;;;;;;28.20;14.25;;;1.30;99.90;;;;;;4993428;28;20231;-82
2020/12/11 08:33:10;;;;;;;33.90;18.10;;;1.40;99.90;;;;;;4988503;28;20208;-82
2020/12/11 08:35:38;;;;;;;30.75;17.15;;;1.40;99.90;;;;;;4989740;28;20208;-81
2020/12/11 08:38:05;;;;;;;35.33;18.75;;;1.60;99.90;;;;;;4993792;28;20204;-80
2020/12/11 08:40:45;;;;;;;27.05;14.57;;;1.70;99.90;;;;;;5013517;28;20566;-84
2020/12/11 08:43:17;;;;;;;28.02;16.10;;;2.00;99.90;;;;;;5013413;28;20678;-84
2020/12/11 08:45:54;;;;;;;29.98;15.55;;;2.20;99.90;;;;;;5013334;28;20208;-84
2020/12/11 08:48:32;;;;;;;24.75;13.07;;;2.20;99.90;;;;;;5012375;28;20210;-84
2020/12/11 08:51:02;;;;;;;26.27;13.93;;;2.30;99.90;;;;;;5013294;28;20215;-83
2020/12/11 08:53:34;;;;;;;26.83;15.32;;;2.40;99.90;;;;;;5013024;28;20239;-84
2020/12/11 08:56:01;;;;;;;27.80;14.10;;;2.40;99.90;;;;;;5013168;28;20290;-84
2020/12/11 08:58:28;;;;;;;26.08;15.50;;;2.60;99.90;;;;;;5013039;28;20764;-83
2020/12/11 09:00:54;;;;;;;27.42;13.48;;;2.80;99.90;;;;;;5013119;28;20290;-83
2020/12/11 09:03:21;;;;;;;27.55;15.65;;;2.80;99.90;;;;;;5011849;28;20239;-82
2020/12/11 09:05:47;;;;;;;30.30;18.05;;;2.80;99.90;;;;;;4995309;28;20702;-83
2020/12/11 09:08:13;;;;;;;26.80;16.00;;;2.80;99.90;;;;;;4993260;28;20679;-83
2020/12/11 09:10:40;;;;;;;24.40;14.38;;;2.80;99.90;;;;;;4993194;28;20235;-83
2020/12/11 09:13:07;;;;;;;26.35;14.40;;;2.80;99.90;;;;;;4993588;28;20204;-84
2020/12/11 09:15:34;;;;;;;23.63;14.07;;;2.90;99.90;;;;;;4993391;28;20205;-84
2020/12/11 09:18:00;;;;;;;27.60;12.90;;;3.00;99.90;;;;;;4992106;28;20235;-84
2020/12/11 09:20:27;;;;;;;24.05;14.65;;;3.00;99.90;;;;;;4993310;28;20239;-84
2020/12/11 09:22:54;;;;;;;25.45;14.48;;;3.00;99.90;;;;;;4993143;28;20244;-84
2020/12/11 09:25:20;;;;;;;23.50;12.15;;;3.10;99.90;;;;;;4993130;28;20251;-84
2020/12/11 09:27:47;;;;;;;26.80;14.90;;;3.10;99.90;;;;;;4997169;28;20298;-85
2020/12/11 09:30:21;;;;;;;23.40;13.68;;;3.20;99.90;;;;;;4997269;28;20267;-84
2020/12/11 09:32:55;;;;;;;26.63;12.38;;;3.20;99.90;;;;;;4996156;28;20207;-84
2020/12/11 09:35:24;;;;;;;20.63;11.55;;;3.30;99.90;;;;;;5010727;28;20219;-84
2020/12/11 09:37:50;;;;;;;24.60;11.60;;;3.40;99.90;;;;;;5011736;28;20199;-84
2020/12/11 09:40:18;;;;;;;19.42;12.27;;;3.40;99.90;;;;;;5016479;28;20585;-84
2020/12/11 09:43:06;;;;;;;27.95;13.00;;;3.30;99.90;;;;;;5016416;28;20214;-85
2020/12/11 09:45:34;;;;;;;23.00;12.32;;;3.40;99.90;;;;;;5016635;28;20306;-84
2020/12/11 09:50:58;;;;;;;21.17;13.30;;;3.50;99.90;;;;;;5010941;28;20231;-84
2020/12/11 09:53:44;;;;;;;20.15;11.88;;;3.50;99.90;;;;;;5016607;28;20725;-83
2020/12/11 09:56:10;;;;;;;28.25;15.45;;;3.60;99.90;;;;;;5016236;28;20214;-83
2020/12/11 09:58:40;;;;;;;21.15;13.50;;;3.60;99.90;;;;;;5016224;28;20725;-83
2020/12/11 10:01:08;;;;;;;24.90;14.70;;;3.70;99.90;;;;;;5016287;28;20204;-84
2020/12/11 10:03:37;;;;;;;21.63;13.88;;;3.70;99.90;;;;;;5014903;28;20215;-83
2020/12/11 10:06:08;;;;;;;19.38;11.35;;;3.70;99.90;;;;;;4997294;28;20299;-84
2020/12/11 10:08:35;;;;;;;20.85;12.00;;;3.70;99.90;;;;;;4996269;28;20243;-84
2020/12/11 10:11:01;;;;;;;23.40;11.07;;;3.80;99.90;;;;;;4996427;28;20300;-84
2020/12/11 10:13:28;;;;;;;18.45;11.55;;;4.00;99.90;;;;;;4996128;28;20607;-83
2020/12/11 10:15:54;;;;;;;26.00;13.70;;;4.00;99.90;;;;;;4996553;28;20208;-84
2020/12/11 10:18:21;;;;;;;20.45;12.77;;;4.10;99.90;;;;;;4995540;28;20327;-85
2020/12/11 10:20:48;;;;;;;19.48;11.50;;;4.20;99.90;;;;;;4996308;28;20303;-84
2020/12/11 10:23:15;;;;;;;16.55;11.35;;;4.20;99.90;;;;;;4996234;28;20826;-83
2020/12/11 10:25:41;;;;;;;16.73;10.48;;;4.20;99.90;;;;;;4996459;28;20231;-84
2020/12/11 10:28:07;;;;;;;16.42;9.75;;;4.30;99.90;;;;;;4996323;28;20231;-85
2020/12/11 10:30:34;;;;;;;15.82;9.73;;;4.40;99.90;;;;;;4996202;28;20232;-87
2020/12/11 10:33:00;;;;;;;16.50;11.38;;;4.40;99.90;;;;;;4992098;28;20286;-85
2020/12/11 10:35:27;;;;;;;17.08;11.27;;;4.60;99.90;;;;;;5009811;28;20290;-84
2020/12/11 10:37:54;;;;;;;16.02;10.73;;;4.50;99.90;;;;;;5014532;28;20230;-84
2020/12/11 10:40:21;;;;;;;22.40;12.20;;;4.40;99.90;;;;;;5015287;28;20685;-84
2020/12/11 10:42:47;;;;;;;22.38;10.73;;;4.40;99.90;;;;;;5015394;28;20628;-84
2020/12/11 10:45:13;;;;;;;18.90;9.95;;;4.30;99.90;;;;;;5015714;28;20207;-87
2020/12/11 10:47:40;;;;;;;25.45;12.13;;;4.40;99.90;;;;;;5015051;28;20238;-84
2020/12/11 10:50:06;;;;;;;21.77;12.23;;;4.30;99.90;;;;;;5015733;28;20243;-86
2020/12/11 10:52:33;;;;;;;18.58;11.55;;;4.30;99.90;;;;;;5015646;28;20224;-87
2020/12/11 10:55:00;;;;;;;23.15;11.75;;;4.30;99.90;;;;;;5015028;28;20210;-84
2020/12/11 10:57:26;;;;;;;22.38;12.52;;;4.30;99.90;;;;;;5015545;28;20214;-86
2020/12/11 10:59:52;;;;;;;20.02;12.50;;;4.20;99.90;;;;;;5015014;28;20326;-87
2020/12/11 11:02:19;;;;;;;19.10;12.20;;;4.20;99.90;;;;;;5014369;28;20207;-87
2020/12/11 11:04:45;;;;;;;18.77;11.30;;;4.10;99.90;;;;;;5015658;28;20214;-87
2020/12/11 11:07:14;;;;;;;27.60;11.95;;;4.20;99.90;;;;;;5015776;28;20635;-87
2020/12/11 11:09:45;;;;;;;21.42;13.10;;;4.20;99.90;;;;;;5014877;28;20231;-88
2020/12/11 11:12:25;;;;;;;18.90;11.35;;;4.20;99.90;;;;;;5015240;28;20553;-85
2020/12/11 11:15:27;;;;;;;24.13;13.00;;;4.20;99.90;;;;;;5015007;28;20211;-85
2020/12/11 11:18:05;;;;;;;18.50;10.93;;;4.30;99.90;;;;;;5013907;28;20215;-87
2020/12/11 11:23:33;;;;;;;23.00;12.23;;;4.20;99.90;;;;;;5009556;28;20227;-87
2020/12/11 11:28:41;;;;;;;18.08;10.50;;;4.20;99.90;;;;;;5012420;28;20222;-88
2020/12/11 11:31:10;;;;;;;15.57;10.25;;;4.20;99.90;;;;;;5014779;28;20239;-88
2020/12/11 11:33:37;;;;;;;21.48;11.73;;;4.40;99.90;;;;;;5013249;28;20741;-86
2020/12/11 11:36:03;;;;;;;22.77;12.60;;;4.60;99.90;;;;;;5014673;28;20298;-87
2020/12/11 11:38:29;;;;;;;18.27;11.52;;;4.60;99.90;;;;;;5014460;28;20239;-87
2020/12/11 11:40:56;;;;;;;17.10;10.88;;;4.80;99.90;;;;;;5015118;28;20211;-88
2020/12/11 11:43:28;;;;;;;19.90;12.50;;;4.80;99.90;;;;;;5019127;28;20267;-86
2020/12/11 11:45:55;;;;;;;15.30;10.43;;;4.60;99.90;;;;;;5030326;28;20214;-84
2020/12/11 11:48:22;;;;;;;18.67;11.68;;;4.60;99.90;;;;;;5029140;28;20231;-84
2020/12/11 11:50:54;;;;;;;19.63;11.75;;;4.50;99.90;;;;;;5017488;28;20318;-87
2020/12/11 11:53:23;;;;;;;24.40;12.98;;;4.40;99.90;;;;;;5014405;28;20775;-83
2020/12/11 11:55:50;;;;;;;20.77;12.23;;;4.40;99.90;;;;;;5014501;28;20281;-87
2020/12/11 11:58:16;;;;;;;22.10;12.00;;;4.30;99.90;;;;;;5014956;28;20289;-86
2020/12/11 12:00:43;;;;;;;16.27;10.68;;;4.30;99.90;;;;;;5014823;28;20303;-84
2020/12/11 12:03:10;;;;;;;20.60;11.75;;;4.60;99.90;;;;;;5014096;28;20208;-88
2020/12/11 12:05:37;;;;;;;19.83;11.77;;;4.80;99.90;;;;;;5014342;28;20208;-87
2020/12/11 12:08:03;;;;;;;21.90;11.95;;;4.80;99.90;;;;;;5014703;28;20298;-87
2020/12/11 12:10:30;;;;;;;21.98;12.00;;;4.80;99.90;;;;;;5014619;28;20322;-89
2020/12/11 12:12:57;;;;;;;19.13;11.80;;;4.80;99.90;;;;;;5014723;28;20211;-86
2020/12/11 12:15:25;;;;;;;19.55;11.38;;;4.80;99.90;;;;;;5014429;28;20786;-88
2020/12/11 12:17:57;;;;;;;19.10;10.52;;;4.70;99.90;;;;;;5013086;28;20298;-88
2020/12/11 12:20:33;;;;;;;16.40;11.07;;;4.80;99.90;;;;;;5014051;28;20214;-88
2020/12/11 12:28:43;;;;;;;20.10;12.10;;;4.70;99.90;;;;;;5014174;28;20198;-88
2020/12/11 12:31:12;;;;;;;19.25;10.90;;;4.80;99.90;;;;;;5013958;28;20234;-86
2020/12/11 12:34:12;;;;;;;18.55;10.18;;;4.90;99.90;;;;;;5012832;28;20253;-87
2020/12/11 12:42:46;;;;;;;21.50;12.15;;;5.00;99.90;;;;;;4953204;29;20685;-84
2020/12/11 12:45:13;;;;;;;21.38;13.23;;;5.10;99.90;;;;;;5010041;28;20486;-86
2020/12/11 12:47:40;;;;;;;23.48;12.98;;;5.10;99.90;;;;;;5007333;28;20307;-84
2020/12/11 12:50:08;;;;;;;19.48;12.65;;;5.10;99.90;;;;;;5013390;28;20323;-83
2020/12/11 12:52:35;;;;;;;19.33;12.30;;;5.30;99.90;;;;;;5013649;28;20243;-87
2020/12/11 12:55:02;;;;;;;20.58;13.18;;;5.30;99.90;;;;;;5013251;28;20294;-88
2020/12/11 12:57:31;;;;;;;18.05;11.68;;;5.20;99.90;;;;;;5013612;28;20630;-86
2020/12/11 13:00:05;;;;;;;16.33;11.15;;;5.00;99.90;;;;;;5013646;28;20687;-86
2020/12/11 13:05:17;;;;;;;15.68;9.75;;;4.90;99.90;;;;;;5025079;28;20200;-87
2020/12/11 13:07:44;;;;;;;21.17;12.20;;;4.90;99.90;;;;;;5037716;28;20231;-85